Rio Blanco — D5BO9 — position and weather

sailwx.info

Track history (hours):
 
Tides and Currents Weather Stations Pressure Air Temp Water Temp Dewpoint Dewpoint Depression Visibility Wind Speed Wind Dir Waves Ship Positions

Rio Blanco

Last reported at 2014-Aug-23 21:15 UTC. Time now 2014-Aug-29 12:22 UTC.
Position N 31°13' E 032°21'.

Length 286 m; draft 12.4 m.

Type: Ship (hazmat cat A). MMSI: 636092395.

Date/timePositionNaut miles runAvg speedWind from/ knotsBaromVisibWave heightAir tempDewpointWater temp
2014-Aug-23 21:15N 31°13' E 032°21'6 7.9
2014-Aug-23 20:33N 31°19' E 032°22'6 6.0
2014-Aug-23 19:34N 31°25' E 032°21'16210.0
2014-Aug-23 03:25N 32°31' E 029°27'1618.9
2014-Aug-23 02:33N 32°36' E 029°09'1919.2
2014-Aug-23 01:33N 32°42' E 028°47'1919.2
2014-Aug-23 00:33N 32°48' E 028°26'2019.5
2014-Aug-22 23:33N 32°55' E 028°04'24220.1
2014-Aug-22 11:33N 34°12' E 023°29'8020.0
2014-Aug-22 07:33N 34°37' E 021°57'2320.6
2014-Aug-22 06:27N 34°45' E 021°31'2520.5
2014-Aug-22 05:15N 34°54' E 021°03'3420.3
2014-Aug-22 03:33N 35°04' E 020°23'21120.5
2014-Aug-21 17:15N 36°12' E 016°17'1420.6
2014-Aug-21 16:33N 36°16' E 016°00'2120.6
2014-Aug-21 15:33N 36°23' E 015°36'2120.6
2014-Aug-21 14:33N 36°30' E 015°12'2020.4
2014-Aug-21 13:33N 36°35' E 014°47'2020.5
2014-Aug-21 12:33N 36°42' E 014°23'2020.4
2014-Aug-21 11:33N 36°52' E 014°01'2020.1
2014-Aug-21 10:33N 37°01' E 013°39'2019.9
2014-Aug-21 09:33N 37°11' E 013°17'2020.1
2014-Aug-21 08:33N 37°19' E 012°54'2019.9
2014-Aug-21 07:33N 37°26' E 012°30'9120.7
2014-Aug-21 03:10N 38°13' E 010°52'1820.4
2014-Aug-21 02:16N 38°23' E 010°32'2420.4
2014-Aug-21 01:05N 38°36' E 010°06'1120.6
2014-Aug-21 00:32N 38°42' E 009°54'2020.6
2014-Aug-20 23:33N 38°53' E 009°32'2020.5
2014-Aug-20 22:33N 39°04' E 009°10'1010.0
2014-Aug-20 21:33N 39°13' E 009°04'0 0.3
2014-Aug-20 20:32N 39°13' E 009°04'0 0.0
2014-Aug-20 19:32N 39°13' E 009°04'0 0.0
2014-Aug-20 18:32N 39°13' E 009°04'0 0.0
2014-Aug-20 17:32N 39°13' E 009°04'0 0.0
2014-Aug-20 16:32N 39°13' E 009°04'0 0.0
2014-Aug-20 15:32N 39°13' E 009°04'0 0.0
2014-Aug-20 14:32N 39°13' E 009°04'0 0.0
2014-Aug-20 13:32N 39°13' E 009°04'0 0.0
2014-Aug-20 12:32N 39°13' E 009°04'0 0.0
2014-Aug-20 11:32N 39°13' E 009°04'0 0.0
2014-Aug-20 10:32N 39°13' E 009°04'0 0.0
2014-Aug-20 09:32N 39°13' E 009°04'0 0.0
2014-Aug-20 08:32N 39°13' E 009°04'0 0.0
2014-Aug-20 07:32N 39°13' E 009°04'0 0.0
2014-Aug-20 06:32N 39°13' E 009°04'0 0.0
2014-Aug-20 05:32N 39°13' E 009°04'0 0.0
2014-Aug-20 04:33N 39°13' E 009°04'8 7.6
2014-Aug-20 03:33N 39°06' E 009°07'1716.4
2014-Aug-20 02:33N 38°51' E 008°57'1717.3
2014-Aug-20 01:32N 38°43' E 008°37'1817.9
2014-Aug-20 00:33N 38°37' E 008°16'2217.5
2014-Aug-19 23:18N 38°31' E 007°49'1317.4
2014-Aug-19 22:33N 38°28' E 007°33'12617.9
2014-Aug-19 15:31N 37°53' E 004°59'1818.4
2014-Aug-19 14:33N 37°48' E 004°37'1918.6
2014-Aug-19 13:33N 37°43' E 004°14'1918.6
2014-Aug-19 12:33N 37°38' E 003°52'1918.6
2014-Aug-19 11:32N 37°33' E 003°29'1919.0
2014-Aug-19 10:31N 37°27' E 003°06'2021.1
2014-Aug-19 09:33N 37°21' E 002°41'2621.4
2014-Aug-19 08:20N 37°14' E 002°09'1921.3
2014-Aug-19 07:27N 37°09' E 001°47'2721.2
2014-Aug-19 06:10N 37°01' E 001°14'1320.8
2014-Aug-19 05:32N 36°58' E 000°58'2521.3
2014-Aug-19 04:23N 36°51' E 000°29'1821.2
2014-Aug-19 03:33N 36°46' E 000°07'2222.3
2014-Aug-19 02:32N 36°40' W 000°19'2222.0
2014-Aug-19 01:33N 36°34' W 000°46'2521.1
2014-Aug-19 00:22N 36°27' W 001°15'1720.9
2014-Aug-18 23:33N 36°22' W 001°36'18021.5
2014-Aug-18 15:10N 35°59' W 005°17'140 3.8
2014-Aug-17 02:22N 36°18' W 008°08'1212.3
2014-Aug-17 01:25N 36°22' W 008°22'1112.5
2014-Aug-17 00:33N 36°25' W 008°35'1313.0
2014-Aug-16 23:33N 36°28' W 008°51'1313.1
2014-Aug-16 22:33N 36°32' W 009°06'1313.0
2014-Aug-16 21:33N 36°37' W 009°21'1313.4
2014-Aug-16 20:33N 36°47' W 009°32'1312.9
2014-Aug-16 19:33N 36°59' W 009°38'1312.8
2014-Aug-16 18:33N 37°11' W 009°44'1313.1
2014-Aug-16 17:32N 37°24' W 009°50'  
Track history (hours):
 
Tides and Currents Weather Stations Pressure Air Temp Water Temp Dewpoint Dewpoint Depression Visibility Wind Speed Wind Dir Waves Ship Positions

Rio Blanco

Last reported at 2014-Aug-23 21:15 UTC. Time now 2014-Aug-29 12:22 UTC.
Position N 31°13' E 032°21'.

Length 286 m; draft 12.4 m.

Type: Ship (hazmat cat A). MMSI: 636092395.

Date/timePositionNaut miles runAvg speedWind from/ knotsBaromVisibWave heightAir tempDewpointWater temp
2014-Aug-23 21:15N 31°13' E 032°21'6 7.9
2014-Aug-23 20:33N 31°19' E 032°22'6 6.0
2014-Aug-23 19:34N 31°25' E 032°21'16210.0
2014-Aug-23 03:25N 32°31' E 029°27'1618.9
2014-Aug-23 02:33N 32°36' E 029°09'1919.2
2014-Aug-23 01:33N 32°42' E 028°47'1919.2
2014-Aug-23 00:33N 32°48' E 028°26'2019.5
2014-Aug-22 23:33N 32°55' E 028°04'24220.1
2014-Aug-22 11:33N 34°12' E 023°29'8020.0
2014-Aug-22 07:33N 34°37' E 021°57'2320.6
2014-Aug-22 06:27N 34°45' E 021°31'2520.5
2014-Aug-22 05:15N 34°54' E 021°03'3420.3
2014-Aug-22 03:33N 35°04' E 020°23'21120.5
2014-Aug-21 17:15N 36°12' E 016°17'1420.6
2014-Aug-21 16:33N 36°16' E 016°00'2120.6
2014-Aug-21 15:33N 36°23' E 015°36'2120.6
2014-Aug-21 14:33N 36°30' E 015°12'2020.4
2014-Aug-21 13:33N 36°35' E 014°47'2020.5
2014-Aug-21 12:33N 36°42' E 014°23'2020.4
2014-Aug-21 11:33N 36°52' E 014°01'2020.1
2014-Aug-21 10:33N 37°01' E 013°39'2019.9
2014-Aug-21 09:33N 37°11' E 013°17'2020.1
2014-Aug-21 08:33N 37°19' E 012°54'2019.9
2014-Aug-21 07:33N 37°26' E 012°30'9120.7
2014-Aug-21 03:10N 38°13' E 010°52'1820.4
2014-Aug-21 02:16N 38°23' E 010°32'2420.4
2014-Aug-21 01:05N 38°36' E 010°06'1120.6
2014-Aug-21 00:32N 38°42' E 009°54'2020.6
2014-Aug-20 23:33N 38°53' E 009°32'2020.5
2014-Aug-20 22:33N 39°04' E 009°10'1010.0
2014-Aug-20 21:33N 39°13' E 009°04'0 0.3
2014-Aug-20 20:32N 39°13' E 009°04'0 0.0
2014-Aug-20 19:32N 39°13' E 009°04'0 0.0
2014-Aug-20 18:32N 39°13' E 009°04'0 0.0
2014-Aug-20 17:32N 39°13' E 009°04'0 0.0
2014-Aug-20 16:32N 39°13' E 009°04'0 0.0
2014-Aug-20 15:32N 39°13' E 009°04'0 0.0
2014-Aug-20 14:32N 39°13' E 009°04'0 0.0
2014-Aug-20 13:32N 39°13' E 009°04'0 0.0
2014-Aug-20 12:32N 39°13' E 009°04'0 0.0
2014-Aug-20 11:32N 39°13' E 009°04'0 0.0
2014-Aug-20 10:32N 39°13' E 009°04'0 0.0
2014-Aug-20 09:32N 39°13' E 009°04'0 0.0
2014-Aug-20 08:32N 39°13' E 009°04'0 0.0
2014-Aug-20 07:32N 39°13' E 009°04'0 0.0
2014-Aug-20 06:32N 39°13' E 009°04'0 0.0
2014-Aug-20 05:32N 39°13' E 009°04'0 0.0
2014-Aug-20 04:33N 39°13' E 009°04'8 7.6
2014-Aug-20 03:33N 39°06' E 009°07'1716.4
2014-Aug-20 02:33N 38°51' E 008°57'1717.3
2014-Aug-20 01:32N 38°43' E 008°37'1817.9
2014-Aug-20 00:33N 38°37' E 008°16'2217.5
2014-Aug-19 23:18N 38°31' E 007°49'1317.4
2014-Aug-19 22:33N 38°28' E 007°33'12617.9
2014-Aug-19 15:31N 37°53' E 004°59'1818.4
2014-Aug-19 14:33N 37°48' E 004°37'1918.6
2014-Aug-19 13:33N 37°43' E 004°14'1918.6
2014-Aug-19 12:33N 37°38' E 003°52'1918.6
2014-Aug-19 11:32N 37°33' E 003°29'1919.0
2014-Aug-19 10:31N 37°27' E 003°06'2021.1
2014-Aug-19 09:33N 37°21' E 002°41'2621.4
2014-Aug-19 08:20N 37°14' E 002°09'1921.3
2014-Aug-19 07:27N 37°09' E 001°47'2721.2
2014-Aug-19 06:10N 37°01' E 001°14'1320.8
2014-Aug-19 05:32N 36°58' E 000°58'2521.3
2014-Aug-19 04:23N 36°51' E 000°29'1821.2
2014-Aug-19 03:33N 36°46' E 000°07'2222.3
2014-Aug-19 02:32N 36°40' W 000°19'2222.0
2014-Aug-19 01:33N 36°34' W 000°46'2521.1
2014-Aug-19 00:22N 36°27' W 001°15'1720.9
2014-Aug-18 23:33N 36°22' W 001°36'18021.5
2014-Aug-18 15:10N 35°59' W 005°17'140 3.8
2014-Aug-17 02:22N 36°18' W 008°08'1212.3
2014-Aug-17 01:25N 36°22' W 008°22'1112.5
2014-Aug-17 00:33N 36°25' W 008°35'1313.0
2014-Aug-16 23:33N 36°28' W 008°51'1313.1
2014-Aug-16 22:33N 36°32' W 009°06'1313.0
2014-Aug-16 21:33N 36°37' W 009°21'1313.4
2014-Aug-16 20:33N 36°47' W 009°32'1312.9
2014-Aug-16 19:33N 36°59' W 009°38'1312.8
2014-Aug-16 18:33N 37°11' W 009°44'1313.1
2014-Aug-16 17:32N 37°24' W 009°50'  

Dump ship's entire track history